English, West Virginia
Current Conditions -  °F | °C
As of 9:55 AM on Tuesday 21 Oct 2014 (Local Time) from KJFZ Reporting Station
Haze Haze  
Wind Chill: 11°   Ceiling: 300
Heat Index: 11°   Visibility: 4mi
Dew Point: 10°   Wind: 9mph
Humidity: 92%   Direction: 260°W
Pressure: 29.98"   Gusts: 16mph
Location:  37.34°N, 81.72°W
Report Text: KJFZ 211355Z AUTO 26008G14KT 4SM BR OVC003 11/10 A2998 RMK AO2 T01110099
Loading
Personal Weather Stations






























Interactive Weather Map
Tropical Storm Tracking
New forecast layout! Learn more

10-Day Weather Forecast

Advertisements
Track Severe Weather on mobile